Time,TemperatureF,DewpointF,PressureIn,WindDirection,WindDirectionDegrees,WindSpeedMPH,WindSpeedGustMPH,Humidity,HourlyPrecipIn,Conditions,Clouds,dailyrainin,SolarRadiationWatts/m^2,SoftwareType,DateUTC
2013-08-05 00:08:00,56.2,52.0,29.87,SW,229,1.0,9.0,87,0.00,,,0.00,0,weatherlink.com 1.10,2013-08-05 04:08:00,
2013-08-05 00:23:00,56.0,52.0,29.87,WSW,240,9.0,10.0,86,0.00,,,0.00,0,weatherlink.com 1.10,2013-08-05 04:23:00,
2013-08-05 00:38:00,55.9,52.0,29.87,West,277,3.0,7.0,85,0.00,,,0.00,0,weatherlink.com 1.10,2013-08-05 04:38:00,
2013-08-05 00:53:00,56.1,51.0,29.87,WSW,237,0.0,6.0,84,0.00,,,0.00,0,weatherlink.com 1.10,2013-08-05 04:53:00,
2013-08-05 01:08:00,55.9,51.0,29.87,WNW,293,1.0,7.0,83,0.00,,,0.00,0,weatherlink.com 1.10,2013-08-05 05:08:00,
2013-08-05 01:23:00,55.9,51.0,29.87,NW,320,0.0,7.0,83,0.00,,,0.00,0,weatherlink.com 1.10,2013-08-05 05:23:00,
2013-08-05 01:38:00,55.7,51.0,29.87,WSW,253,0.0,4.0,84,0.00,,,0.00,0,weatherlink.com 1.10,2013-08-05 05:38:00,
2013-08-05 01:52:00,55.4,51.0,29.87,NE,42,0.0,4.0,86,0.00,,,0.00,0,weatherlink.com 1.10,2013-08-05 05:52:00,
2013-08-05 02:08:00,54.5,50.0,29.87,WNW,282,1.0,4.0,86,0.00,,,0.00,0,weatherlink.com 1.10,2013-08-05 06:08:00,
2013-08-05 02:23:00,54.3,51.0,29.87,WNW,289,0.0,1.0,87,0.00,,,0.00,0,weatherlink.com 1.10,2013-08-05 06:23:00,
2013-08-05 02:38:00,54.0,51.0,29.87,WNW,296,0.0,2.0,90,0.00,,,0.00,0,weatherlink.com 1.10,2013-08-05 06:38:00,
2013-08-05 02:53:00,53.5,51.0,29.88,West,281,0.0,1.0,92,0.00,,,0.00,0,weatherlink.com 1.10,2013-08-05 06:53:00,
2013-08-05 03:08:00,53.0,51.0,29.88,WNW,294,5.0,5.0,92,0.00,,,0.00,0,weatherlink.com 1.10,2013-08-05 07:08:00,
2013-08-05 03:23:00,52.8,51.0,29.88,SE,125,3.0,3.0,93,0.00,,,0.00,0,weatherlink.com 1.10,2013-08-05 07:23:00,
2013-08-05 03:38:00,51.9,50.0,29.88,SE,126,0.0,3.0,92,0.00,,,0.00,0,weatherlink.com 1.10,2013-08-05 07:38:00,
2013-08-05 03:53:00,51.0,49.0,29.89,South,184,0.0,3.0,92,0.00,,,0.00,0,weatherlink.com 1.10,2013-08-05 07:53:00,
2013-08-05 04:08:00,50.3,48.0,29.89,SSE,159,0.0,2.0,93,0.00,,,0.00,0,weatherlink.com 1.10,2013-08-05 08:08:00,
2013-08-05 04:23:00,49.7,48.0,29.89,SE,132,0.0,4.0,94,0.00,,,0.00,0,weatherlink.com 1.10,2013-08-05 08:23:00,
2013-08-05 04:38:00,49.4,48.0,29.89,SSW,207,0.0,1.0,93,0.00,,,0.00,0,weatherlink.com 1.10,2013-08-05 08:38:00,
2013-08-05 04:53:00,49.2,48.0,29.90,West,273,1.0,3.0,94,0.00,,,0.00,0,weatherlink.com 1.10,2013-08-05 08:53:00,
2013-08-05 05:08:00,48.9,47.0,29.90,NW,310,0.0,2.0,93,0.00,,,0.00,0,weatherlink.com 1.10,2013-08-05 09:08:00,
2013-08-05 05:38:00,48.8,47.0,29.91,SW,234,0.0,2.0,92,0.00,,,0.00,0,weatherlink.com 1.10,2013-08-05 09:38:00,
2013-08-05 05:53:00,48.8,46.0,29.92,WNW,290,0.0,2.0,90,0.00,,,0.00,5,weatherlink.com 1.10,2013-08-05 09:53:00,
2013-08-05 06:08:00,48.5,46.0,29.92,ESE,121,0.0,3.0,91,0.00,,,0.00,11,weatherlink.com 1.10,2013-08-05 10:08:00,
2013-08-05 06:23:00,49.0,46.0,29.92,ESE,122,0.0,3.0,88,0.00,,,0.00,14,weatherlink.com 1.10,2013-08-05 10:23:00,
2013-08-05 06:39:00,50.6,47.0,29.93,East,92,0.0,1.0,88,0.00,,,0.00,33,weatherlink.com 1.10,2013-08-05 10:39:00,
2013-08-05 06:53:00,51.4,47.0,29.93,SE,124,1.0,3.0,86,0.00,,,0.00,46,weatherlink.com 1.10,2013-08-05 10:53:00,
2013-08-05 07:09:00,51.4,46.0,29.93,NNW,328,0.0,3.0,83,0.00,,,0.00,19,weatherlink.com 1.10,2013-08-05 11:09:00,
2013-08-05 07:24:00,52.6,48.0,29.94,NW,306,2.0,4.0,84,0.00,,,0.00,53,weatherlink.com 1.10,2013-08-05 11:24:00,
2013-08-05 07:39:00,54.1,48.0,29.94,SSE,159,0.0,3.0,79,0.00,,,0.00,58,weatherlink.com 1.10,2013-08-05 11:39:00,
2013-08-05 08:09:00,54.9,47.0,29.94,WSW,254,3.0,7.0,75,0.00,,,0.00,74,weatherlink.com 1.10,2013-08-05 12:09:00,
2013-08-05 08:24:00,56.2,48.0,29.94,NNW,331,1.0,4.0,74,0.00,,,0.00,95,weatherlink.com 1.10,2013-08-05 12:24:00,
2013-08-05 08:54:00,57.7,49.0,29.95,WSW,246,1.0,4.0,73,0.00,,,0.00,70,weatherlink.com 1.10,2013-08-05 12:54:00,
2013-08-05 09:09:00,58.5,50.0,29.94,West,275,1.0,6.0,74,0.00,,,0.00,83,weatherlink.com 1.10,2013-08-05 13:09:00,
2013-08-05 09:24:00,58.7,49.0,29.95,West,275,0.0,5.0,69,0.00,,,0.00,74,weatherlink.com 1.10,2013-08-05 13:24:00,
2013-08-05 09:39:00,58.5,48.0,29.95,WNW,302,0.0,5.0,69,0.00,,,0.00,76,weatherlink.com 1.10,2013-08-05 13:39:00,
2013-08-05 09:54:00,59.5,48.0,29.95,South,186,0.0,4.0,65,0.00,,,0.00,70,weatherlink.com 1.10,2013-08-05 13:54:00,
2013-08-05 10:09:00,60.0,47.0,29.95,West,264,0.0,7.0,63,0.00,,,0.00,72,weatherlink.com 1.10,2013-08-05 14:09:00,
2013-08-05 10:39:00,61.6,49.0,29.94,North,5,1.0,5.0,63,0.00,,,0.00,420,weatherlink.com 1.10,2013-08-05 14:39:00,
2013-08-05 10:54:00,62.0,50.0,29.95,SE,145,0.0,4.0,65,0.00,,,0.00,577,weatherlink.com 1.10,2013-08-05 14:54:00,
2013-08-05 11:09:00,62.5,46.0,29.95,NE,44,0.0,5.0,56,0.00,,,0.00,628,weatherlink.com 1.10,2013-08-05 15:09:00,
2013-08-05 11:24:00,62.3,49.0,29.95,WSW,248,0.0,13.0,63,0.00,,,0.00,642,weatherlink.com 1.10,2013-08-05 15:24:00,
2013-08-05 11:39:00,63.3,49.0,29.95,West,264,4.0,5.0,60,0.00,,,0.00,666,weatherlink.com 1.10,2013-08-05 15:39:00,
2013-08-05 11:54:00,63.5,47.0,29.95,ENE,74,0.0,5.0,56,0.00,,,0.00,715,weatherlink.com 1.10,2013-08-05 15:54:00,
2013-08-05 12:09:00,63.6,49.0,29.95,WNW,289,1.0,3.0,59,0.00,,,0.00,707,weatherlink.com 1.10,2013-08-05 16:09:00,
2013-08-05 12:24:00,64.4,49.0,29.95,North,355,1.0,4.0,58,0.00,,,0.00,768,weatherlink.com 1.10,2013-08-05 16:24:00,
2013-08-05 12:40:00,64.6,47.0,29.95,NW,310,0.0,3.0,53,0.00,,,0.00,800,weatherlink.com 1.10,2013-08-05 16:40:00,
2013-08-05 12:55:00,65.2,48.0,29.95,SSW,192,1.0,4.0,54,0.00,,,0.00,819,weatherlink.com 1.10,2013-08-05 16:55:00,
2013-08-05 13:25:00,65.7,49.0,29.94,West,261,2.0,5.0,55,0.00,,,0.00,854,weatherlink.com 1.10,2013-08-05 17:25:00,
2013-08-05 14:10:00,65.2,47.0,29.95,South,169,0.0,4.0,52,0.00,,,0.00,882,weatherlink.com 1.10,2013-08-05 18:10:00,
2013-08-05 14:25:00,65.3,44.0,29.95,WSW,248,1.0,5.0,46,0.00,,,0.00,893,weatherlink.com 1.10,2013-08-05 18:25:00,
2013-08-05 14:40:00,65.1,46.0,29.95,WNW,292,1.0,7.0,51,0.00,,,0.00,895,weatherlink.com 1.10,2013-08-05 18:40:00,
2013-08-05 14:55:00,65.4,43.0,29.95,WNW,285,3.0,5.0,44,0.00,,,0.00,332,weatherlink.com 1.10,2013-08-05 18:55:00,
2013-08-05 15:40:00,64.0,43.0,29.95,NW,314,1.0,12.0,47,0.00,,,0.00,401,weatherlink.com 1.10,2013-08-05 19:40:00,
2013-08-05 15:55:00,64.0,45.0,29.96,ESE,105,1.0,8.0,51,0.00,,,0.00,111,weatherlink.com 1.10,2013-08-05 19:55:00,
2013-08-05 16:10:00,64.1,45.0,29.96,NE,48,3.0,7.0,50,0.00,,,0.00,225,weatherlink.com 1.10,2013-08-05 20:10:00,
2013-08-05 16:40:00,64.0,45.0,29.96,WNW,301,3.0,10.0,51,0.00,,,0.00,142,weatherlink.com 1.10,2013-08-05 20:40:00,
2013-08-05 16:55:00,64.2,47.0,29.96,WNW,284,1.0,5.0,54,0.00,,,0.00,79,weatherlink.com 1.10,2013-08-05 20:55:00,
2013-08-05 17:10:00,64.1,48.0,29.96,South,169,0.0,6.0,57,0.00,,,0.00,53,weatherlink.com 1.10,2013-08-05 21:10:00,
2013-08-05 17:25:00,64.0,49.0,29.96,NNW,327,4.0,7.0,58,0.00,,,0.00,113,weatherlink.com 1.10,2013-08-05 21:25:00,
2013-08-05 17:40:00,63.7,48.0,29.96,WNW,291,1.0,6.0,57,0.00,,,0.00,44,weatherlink.com 1.10,2013-08-05 21:40:00,
2013-08-05 17:55:00,63.3,47.0,29.96,NW,315,4.0,8.0,56,0.00,,,0.00,127,weatherlink.com 1.10,2013-08-05 21:55:00,
2013-08-05 18:25:00,62.7,49.0,29.96,West,269,0.0,5.0,61,0.00,,,0.00,62,weatherlink.com 1.10,2013-08-05 22:25:00,
2013-08-05 18:55:00,61.9,49.0,29.96,ENE,59,0.0,5.0,63,0.00,,,0.00,35,weatherlink.com 1.10,2013-08-05 22:55:00,
2013-08-05 19:25:00,60.9,49.0,29.97,SE,145,0.0,1.0,65,0.00,,,0.00,18,weatherlink.com 1.10,2013-08-05 23:25:00,
2013-08-05 19:40:00,60.1,49.0,29.97,SE,126,0.0,1.0,68,0.00,,,0.00,12,weatherlink.com 1.10,2013-08-05 23:40:00,
2013-08-05 19:55:00,59.2,49.0,29.97,SE,126,0.0,1.0,69,0.00,,,0.00,7,weatherlink.com 1.10,2013-08-05 23:55:00,
2013-08-05 20:10:00,58.2,50.0,29.97,SE,126,0.0,0.0,73,0.00,,,0.00,0,weatherlink.com 1.10,2013-08-06 00:10:00,
2013-08-05 20:25:00,57.0,51.0,29.97,SE,126,0.0,0.0,79,0.00,,,0.00,0,weatherlink.com 1.10,2013-08-06 00:25:00,
2013-08-05 20:40:00,55.9,50.0,29.98,SE,126,0.0,0.0,80,0.00,,,0.00,0,weatherlink.com 1.10,2013-08-06 00:40:00,
2013-08-05 20:55:00,55.1,49.0,29.99,SE,126,0.0,1.0,81,0.00,,,0.00,0,weatherlink.com 1.10,2013-08-06 00:55:00,
2013-08-05 21:10:00,54.6,49.0,30.00,SE,126,0.0,0.0,80,0.00,,,0.00,0,weatherlink.com 1.10,2013-08-06 01:10:00,
2013-08-05 21:25:00,54.4,48.0,30.00,SE,126,0.0,0.0,79,0.00,,,0.00,0,weatherlink.com 1.10,2013-08-06 01:25:00,
2013-08-05 21:40:00,54.6,48.0,30.00,SE,126,0.0,0.0,79,0.00,,,0.00,0,weatherlink.com 1.10,2013-08-06 01:40:00,
2013-08-05 21:55:00,54.0,49.0,30.01,SSE,150,0.0,3.0,83,0.00,,,0.00,0,weatherlink.com 1.10,2013-08-06 01:55:00,
2013-08-05 22:10:00,53.2,49.0,30.01,SSE,150,0.0,0.0,84,0.00,,,0.00,0,weatherlink.com 1.10,2013-08-06 02:10:00,
2013-08-05 22:40:00,52.2,49.0,30.01,ESE,105,0.0,0.0,87,0.00,,,0.00,0,weatherlink.com 1.10,2013-08-06 02:40:00,
2013-08-05 22:55:00,51.5,48.0,30.01,ESE,105,0.0,0.0,88,0.00,,,0.00,0,weatherlink.com 1.10,2013-08-06 02:55:00,
2013-08-05 23:25:00,50.6,48.0,30.01,ESE,105,0.0,2.0,90,0.00,,,0.00,0,weatherlink.com 1.10,2013-08-06 03:25:00,
2013-08-05 23:40:00,50.3,48.0,30.01,ESE,105,0.0,0.0,91,0.00,,,0.00,0,weatherlink.com 1.10,2013-08-06 03:40:00,
2013-08-05 23:55:00,50.0,47.0,30.01,ESE,105,0.0,2.0,90,0.00,,,0.00,0,weatherlink.com 1.10,2013-08-06 03:55:00,